Time;durP1;ratioP1;P1;durP2;ratioP2;P2;SDS_P1;SDS_P2;PMS_P1;PMS_P2;Temp;Humidity;BMP_temperature;BMP_pressure;BME280_temperature;BME280_humidity;BME280_pressure;Samples;Min_cycle;Max_cycle;Signal;HPM_P1;HPM_P2
2022/03/04 00:01:18;;;;;;;27.67;17.33;;;-2.30;99.90;;;;;;5072955;28;20553;-73
2022/03/04 00:03:47;;;;;;;28.77;17.97;;;-2.40;99.90;;;;;;5073563;28;20819;-73
2022/03/04 00:06:15;;;;;;;28.87;18.13;;;-2.40;99.90;;;;;;5072620;28;20472;-74
2022/03/04 00:08:45;;;;;;;28.27;17.97;;;-2.40;99.90;;;;;;5073460;28;20610;-74
2022/03/04 00:11:15;;;;;;;29.73;18.53;;;-2.50;99.90;;;;;;5073716;28;20536;-75
2022/03/04 00:13:43;;;;;;;29.93;19.17;;;-2.50;99.90;;;;;;5073101;28;20497;-73
2022/03/04 00:16:12;;;;;;;28.00;19.07;;;-2.50;99.90;;;;;;5073234;28;20505;-73
2022/03/04 00:18:40;;;;;;;32.13;20.17;;;-2.50;99.90;;;;;;5073350;28;20476;-75
2022/03/04 00:21:09;;;;;;;28.67;18.80;;;-2.60;99.90;;;;;;5073447;28;20501;-74
2022/03/04 00:23:37;;;;;;;31.00;19.20;;;-2.60;99.90;;;;;;5073233;28;20965;-73
2022/03/04 00:26:10;;;;;;;30.03;19.00;;;-2.60;99.90;;;;;;5072889;28;20795;-74
2022/03/04 00:28:38;;;;;;;30.30;18.27;;;-2.70;99.90;;;;;;5073016;28;20508;-75
2022/03/04 00:31:06;;;;;;;29.97;17.90;;;-2.70;99.90;;;;;;5073619;28;20460;-78
2022/03/04 00:33:42;;;;;;;27.53;18.07;;;-2.70;99.90;;;;;;5073770;28;20986;-76
2022/03/04 00:36:12;;;;;;;29.03;19.30;;;-2.70;99.90;;;;;;5029452;28;1262993;-76
2022/03/04 00:38:40;;;;;;;27.10;17.53;;;-2.80;99.90;;;;;;5074268;28;20474;-75
2022/03/04 00:41:10;;;;;;;33.47;18.77;;;-2.80;99.90;;;;;;5073917;28;20480;-75
2022/03/04 00:43:38;;;;;;;30.50;18.37;;;-2.80;99.90;;;;;;5075269;28;20513;-72
2022/03/04 00:46:06;;;;;;;28.10;18.13;;;-2.80;99.90;;;;;;5075077;28;20520;-74
2022/03/04 00:48:37;;;;;;;30.63;18.47;;;-2.80;99.90;;;;;;5075293;28;20473;-76
2022/03/04 00:51:06;;;;;;;28.63;18.77;;;-2.80;99.90;;;;;;5075433;28;20450;-75
2022/03/04 00:53:34;;;;;;;29.13;18.33;;;-2.80;99.90;;;;;;5073982;28;20540;-73
2022/03/04 00:56:02;;;;;;;26.93;18.43;;;-2.80;99.90;;;;;;5074329;28;20513;-76
2022/03/04 00:58:31;;;;;;;27.07;18.33;;;-2.80;99.90;;;;;;5073684;28;20448;-74
2022/03/04 01:01:01;;;;;;;27.10;17.90;;;-2.80;99.90;;;;;;5073669;28;20478;-77
2022/03/04 01:03:30;;;;;;;28.90;17.63;;;-2.80;99.90;;;;;;5076009;28;20459;-74
2022/03/04 01:05:59;;;;;;;29.33;18.47;;;-2.80;99.90;;;;;;5073573;28;20503;-73
2022/03/04 01:08:27;;;;;;;28.67;17.90;;;-2.90;99.90;;;;;;5074247;28;20446;-74
2022/03/04 01:10:56;;;;;;;25.37;16.13;;;-2.90;99.90;;;;;;5073891;28;20540;-74
2022/03/04 01:13:25;;;;;;;26.50;16.67;;;-2.80;99.90;;;;;;5073781;28;20548;-74
2022/03/04 01:15:56;;;;;;;26.07;17.20;;;-2.80;99.90;;;;;;5073948;28;20575;-74
2022/03/04 01:18:24;;;;;;;28.53;17.30;;;-2.80;99.90;;;;;;5073458;28;20442;-75
2022/03/04 01:20:52;;;;;;;27.20;16.90;;;-2.90;99.90;;;;;;5072915;28;20464;-75
2022/03/04 01:23:21;;;;;;;26.10;17.37;;;-2.90;99.90;;;;;;5073011;28;20452;-74
2022/03/04 01:25:52;;;;;;;26.83;16.83;;;-2.90;99.90;;;;;;5073095;28;20532;-74
2022/03/04 01:28:24;;;;;;;27.23;16.83;;;-2.90;99.90;;;;;;5073642;28;20422;-73
2022/03/04 01:30:53;;;;;;;26.83;16.63;;;-2.90;99.90;;;;;;5073163;28;20473;-73
2022/03/04 01:33:21;;;;;;;23.83;16.10;;;-2.90;99.90;;;;;;5064924;28;20486;-74
2022/03/04 01:35:50;;;;;;;24.03;15.87;;;-2.90;99.90;;;;;;5052811;28;20490;-77
2022/03/04 01:38:19;;;;;;;25.70;16.17;;;-2.90;99.90;;;;;;5054597;28;20991;-75
2022/03/04 01:40:47;;;;;;;24.90;16.13;;;-2.90;99.90;;;;;;5056275;28;20550;-75
2022/03/04 01:43:16;;;;;;;26.27;16.33;;;-2.90;99.90;;;;;;5062350;28;20449;-75
2022/03/04 01:45:44;;;;;;;26.97;16.63;;;-2.90;99.90;;;;;;5072987;28;20527;-75
2022/03/04 01:48:15;;;;;;;26.57;16.57;;;-3.00;99.90;;;;;;5072730;28;20826;-73
2022/03/04 01:50:43;;;;;;;23.80;15.33;;;-3.00;99.90;;;;;;5072705;28;20481;-74
2022/03/04 01:53:11;;;;;;;26.60;17.47;;;-3.00;99.90;;;;;;5072599;28;20459;-76
2022/03/04 01:55:39;;;;;;;24.27;16.27;;;-3.00;99.90;;;;;;5072420;28;20457;-74
2022/03/04 01:58:07;;;;;;;25.47;16.97;;;-3.10;99.90;;;;;;5072144;28;20481;-74
2022/03/04 02:00:38;;;;;;;25.17;16.20;;;-3.10;99.90;;;;;;5072473;28;20484;-74
2022/03/04 02:03:11;;;;;;;28.63;16.80;;;-3.10;99.90;;;;;;5072602;28;20479;-73
2022/03/04 02:05:42;;;;;;;29.00;17.20;;;-3.20;99.90;;;;;;5072097;28;20438;-76
2022/03/04 02:08:12;;;;;;;28.17;17.87;;;-3.20;99.90;;;;;;5072033;28;20842;-75
2022/03/04 02:10:41;;;;;;;27.60;16.50;;;-3.20;99.90;;;;;;5071768;28;20480;-74
2022/03/04 02:13:09;;;;;;;26.93;16.27;;;-3.30;99.90;;;;;;5072449;28;20476;-73
2022/03/04 02:15:37;;;;;;;27.33;16.93;;;-3.30;99.90;;;;;;5071570;28;20457;-73
2022/03/04 02:18:12;;;;;;;26.57;17.37;;;-3.40;99.90;;;;;;5071404;28;20491;-76
2022/03/04 02:20:46;;;;;;;25.50;17.13;;;-3.40;99.90;;;;;;5071628;28;20982;-75
2022/03/04 02:23:17;;;;;;;28.33;18.63;;;-3.50;99.90;;;;;;5071932;28;20596;-73
2022/03/04 02:25:47;;;;;;;30.17;17.47;;;-3.50;99.90;;;;;;5071545;28;20444;-76
2022/03/04 02:28:16;;;;;;;26.50;17.37;;;-3.60;99.90;;;;;;5072523;28;20848;-77
2022/03/04 02:30:44;;;;;;;27.43;17.73;;;-3.60;99.90;;;;;;5072317;28;20778;-75
2022/03/04 02:33:13;;;;;;;29.20;17.80;;;-3.60;99.90;;;;;;5053572;28;20548;-75
2022/03/04 02:35:42;;;;;;;28.93;18.30;;;-3.70;99.90;;;;;;5052483;28;20451;-74
2022/03/04 02:38:10;;;;;;;26.70;17.83;;;-3.70;99.90;;;;;;5064833;28;20484;-73
2022/03/04 02:40:39;;;;;;;28.83;17.30;;;-3.80;99.90;;;;;;5071910;28;20460;-73
2022/03/04 02:43:08;;;;;;;30.53;17.73;;;-3.80;99.90;;;;;;5072027;28;20484;-74
2022/03/04 02:45:36;;;;;;;26.77;17.93;;;-3.90;99.90;;;;;;5072120;28;20547;-74
2022/03/04 02:48:04;;;;;;;29.47;18.03;;;-3.90;99.90;;;;;;5071738;28;20687;-75
2022/03/04 02:50:33;;;;;;;32.30;18.97;;;-4.00;99.90;;;;;;5070828;28;20456;-73
2022/03/04 02:53:01;;;;;;;28.73;18.27;;;-4.00;99.90;;;;;;5051823;28;20446;-73
2022/03/04 02:55:29;;;;;;;28.00;18.40;;;-4.00;99.90;;;;;;5051911;28;20543;-72
2022/03/04 02:57:58;;;;;;;32.20;19.03;;;-4.10;99.90;;;;;;5051669;28;20490;-74
2022/03/04 03:00:28;;;;;;;30.43;19.80;;;-4.10;99.90;;;;;;5051046;28;20507;-73
2022/03/04 03:02:56;;;;;;;32.57;18.60;;;-4.10;99.90;;;;;;5068532;28;20514;-74
2022/03/04 03:05:25;;;;;;;33.07;20.20;;;-4.10;99.90;;;;;;5071462;28;20457;-73
2022/03/04 03:07:53;;;;;;;31.00;18.83;;;-4.10;99.90;;;;;;5071476;28;20521;-76
2022/03/04 03:10:21;;;;;;;30.17;19.53;;;-4.20;99.90;;;;;;5071380;28;20446;-73
2022/03/04 03:12:51;;;;;;;29.57;19.40;;;-4.20;99.90;;;;;;5071378;28;20458;-75
2022/03/04 03:15:21;;;;;;;32.17;19.20;;;-4.20;99.90;;;;;;5071273;28;20958;-75
2022/03/04 03:17:48;;;;;;;30.10;18.27;;;-4.20;99.90;;;;;;5070893;28;20503;-75
2022/03/04 03:20:17;;;;;;;32.17;19.60;;;-4.20;99.90;;;;;;5071286;28;20516;-75
2022/03/04 03:22:45;;;;;;;32.07;19.23;;;-4.30;99.90;;;;;;5071436;28;20459;-75
2022/03/04 03:25:14;;;;;;;29.27;19.53;;;-4.30;99.90;;;;;;5070672;28;20519;-76
2022/03/04 03:27:42;;;;;;;30.87;19.73;;;-4.30;99.90;;;;;;5071579;28;20494;-75
2022/03/04 03:30:11;;;;;;;32.23;19.87;;;-4.30;99.90;;;;;;5066036;28;20555;-76
2022/03/04 03:32:44;;;;;;;35.30;20.27;;;-4.30;99.90;;;;;;5050985;28;20921;-73
2022/03/04 03:35:12;;;;;;;35.00;20.60;;;-4.40;99.90;;;;;;5051289;28;20441;-75
2022/03/04 03:37:42;;;;;;;28.43;19.47;;;-4.40;99.90;;;;;;5057952;28;20564;-74
2022/03/04 03:40:12;;;;;;;31.53;19.70;;;-4.40;99.90;;;;;;5070850;28;21009;-73
2022/03/04 03:42:41;;;;;;;31.40;19.53;;;-4.50;99.90;;;;;;5071082;28;20537;-73
2022/03/04 03:45:11;;;;;;;31.97;20.00;;;-4.40;99.90;;;;;;5071331;28;20452;-74
2022/03/04 03:47:41;;;;;;;31.40;19.73;;;-4.50;99.90;;;;;;5071071;28;20447;-74
2022/03/04 03:50:11;;;;;;;27.73;19.23;;;-4.50;99.90;;;;;;5070623;28;20864;-74
2022/03/04 03:52:40;;;;;;;32.33;20.10;;;-4.40;99.90;;;;;;5071000;28;20478;-74
2022/03/04 03:55:09;;;;;;;31.70;19.40;;;-4.50;99.90;;;;;;5070932;28;20453;-74
2022/03/04 03:57:37;;;;;;;34.47;21.07;;;-4.50;99.90;;;;;;5070776;28;21052;-76
2022/03/04 04:00:06;;;;;;;30.90;19.77;;;-4.50;99.90;;;;;;5070982;28;20463;-73
2022/03/04 04:02:35;;;;;;;30.83;19.43;;;-4.50;99.90;;;;;;5070731;28;20460;-75
2022/03/04 04:05:06;;;;;;;32.27;19.80;;;-4.50;99.90;;;;;;5073193;28;20532;-75
2022/03/04 04:07:34;;;;;;;31.20;19.60;;;-4.50;99.90;;;;;;5074787;28;20456;-74
2022/03/04 04:10:02;;;;;;;31.20;19.70;;;-4.60;99.90;;;;;;5074493;28;20457;-74
2022/03/04 04:12:30;;;;;;;31.67;19.83;;;-4.60;99.90;;;;;;5074254;28;20465;-75
2022/03/04 04:14:59;;;;;;;30.03;19.07;;;-4.60;99.90;;;;;;5073493;28;20957;-76
2022/03/04 04:17:27;;;;;;;30.80;19.43;;;-4.60;99.90;;;;;;5073988;28;20910;-74
2022/03/04 04:19:56;;;;;;;30.87;19.87;;;-4.60;99.90;;;;;;5074456;28;20896;-75
2022/03/04 04:22:25;;;;;;;32.57;19.23;;;-4.60;99.90;;;;;;5073991;28;21052;-74
2022/03/04 04:24:55;;;;;;;30.47;19.13;;;-4.70;99.90;;;;;;5073826;28;20528;-74
2022/03/04 04:27:25;;;;;;;31.37;19.43;;;-4.60;99.90;;;;;;5074122;28;21016;-75
2022/03/04 04:29:53;;;;;;;31.30;18.93;;;-4.70;99.90;;;;;;5059823;28;20551;-74
2022/03/04 04:32:22;;;;;;;33.00;20.47;;;-4.70;99.90;;;;;;5054156;28;20965;-74
2022/03/04 04:34:51;;;;;;;29.27;19.50;;;-4.70;99.90;;;;;;5053609;28;20525;-74
2022/03/04 04:37:20;;;;;;;32.80;20.57;;;-4.70;99.90;;;;;;5060888;28;20955;-77
2022/03/04 04:39:50;;;;;;;32.27;20.33;;;-4.80;99.90;;;;;;5073991;28;20848;-74
2022/03/04 04:42:18;;;;;;;30.10;19.43;;;-4.80;99.90;;;;;;5073584;28;20976;-75
2022/03/04 04:44:46;;;;;;;32.33;19.40;;;-4.80;99.90;;;;;;5073876;28;20451;-74
2022/03/04 04:47:15;;;;;;;32.63;19.93;;;-4.80;99.90;;;;;;5074218;28;20455;-78
2022/03/04 04:49:45;;;;;;;31.53;20.20;;;-4.80;99.90;;;;;;5073388;28;21028;-74
2022/03/04 04:52:14;;;;;;;30.27;20.30;;;-4.80;99.90;;;;;;5073547;28;20459;-74
2022/03/04 04:54:42;;;;;;;29.93;19.37;;;-4.80;99.90;;;;;;5073857;28;20491;-74
2022/03/04 04:57:12;;;;;;;31.73;19.53;;;-4.90;99.90;;;;;;5073487;28;20496;-76
2022/03/04 04:59:43;;;;;;;34.27;20.30;;;-4.90;99.90;;;;;;5073173;28;20584;-74
2022/03/04 05:02:11;;;;;;;32.77;20.97;;;-4.90;99.90;;;;;;5073151;28;20874;-75
2022/03/04 05:04:41;;;;;;;33.67;19.80;;;-4.90;99.90;;;;;;5073832;28;20464;-75
2022/03/04 05:07:09;;;;;;;35.03;20.30;;;-4.90;99.90;;;;;;5073630;28;20537;-74
2022/03/04 05:09:40;;;;;;;35.67;20.87;;;-5.00;99.90;;;;;;5073477;28;20596;-74
2022/03/04 05:12:09;;;;;;;31.63;20.90;;;-5.00;99.90;;;;;;5073389;28;20537;-74
2022/03/04 05:14:41;;;;;;;34.37;21.23;;;-5.00;99.90;;;;;;5073461;28;20435;-75
2022/03/04 05:17:10;;;;;;;35.97;21.27;;;-5.00;99.90;;;;;;5072882;28;20726;-75
2022/03/04 05:19:38;;;;;;;31.93;20.67;;;-5.00;99.90;;;;;;5073678;28;20482;-74
2022/03/04 05:22:06;;;;;;;34.60;20.47;;;-5.00;99.90;;;;;;5075589;28;20446;-74
2022/03/04 05:24:34;;;;;;;33.17;21.37;;;-5.00;99.90;;;;;;5074575;28;20550;-75
2022/03/04 05:27:05;;;;;;;31.33;20.50;;;-5.10;99.90;;;;;;5071054;28;20435;-75
2022/03/04 05:29:33;;;;;;;35.97;21.23;;;-5.10;99.90;;;;;;5053029;28;20440;-75
2022/03/04 05:32:03;;;;;;;35.00;19.50;;;-5.10;99.90;;;;;;5058738;28;20527;-74
2022/03/04 05:34:31;;;;;;;32.67;20.70;;;-5.10;99.90;;;;;;5072652;28;20482;-75
2022/03/04 05:36:59;;;;;;;32.40;20.43;;;-5.10;99.90;;;;;;5072782;28;20461;-74
2022/03/04 05:39:27;;;;;;;30.80;19.93;;;-5.10;99.90;;;;;;5072386;28;20541;-74
2022/03/04 05:41:56;;;;;;;31.33;19.43;;;-5.10;99.90;;;;;;5071536;28;20459;-73
2022/03/04 05:44:24;;;;;;;34.47;19.80;;;-5.10;99.90;;;;;;5072707;28;20622;-74
2022/03/04 05:46:53;;;;;;;30.20;19.83;;;-5.10;99.90;;;;;;5066589;28;20462;-76
2022/03/04 05:49:23;;;;;;;32.73;19.53;;;-5.00;99.90;;;;;;5053580;28;20526;-74
2022/03/04 05:51:51;;;;;;;30.57;19.60;;;-5.00;99.90;;;;;;5069760;28;20477;-75
2022/03/04 05:54:19;;;;;;;33.03;19.33;;;-5.00;99.90;;;;;;5072293;28;20518;-75
2022/03/04 05:56:47;;;;;;;32.80;19.30;;;-5.00;99.90;;;;;;5072607;28;20457;-74
2022/03/04 05:59:15;;;;;;;32.00;19.17;;;-5.00;99.90;;;;;;5072004;28;20491;-75
2022/03/04 06:01:44;;;;;;;34.20;19.77;;;-5.00;99.90;;;;;;5071852;28;20443;-74
2022/03/04 06:04:12;;;;;;;29.63;18.70;;;-4.90;99.90;;;;;;5072024;28;21002;-74
2022/03/04 06:06:42;;;;;;;33.63;19.23;;;-4.80;99.90;;;;;;5072485;28;20475;-75
2022/03/04 06:09:10;;;;;;;32.50;19.17;;;-4.80;99.90;;;;;;5072131;28;20479;-75
2022/03/04 06:11:38;;;;;;;32.43;19.57;;;-4.80;99.90;;;;;;5071465;28;20451;-75
2022/03/04 06:14:07;;;;;;;32.83;20.27;;;-4.70;99.90;;;;;;5072013;28;20494;-75
2022/03/04 06:16:35;;;;;;;33.33;20.63;;;-4.70;99.90;;;;;;5071424;28;20457;-75
2022/03/04 06:19:03;;;;;;;31.30;19.60;;;-4.60;99.90;;;;;;5071673;28;20486;-74
2022/03/04 06:21:31;;;;;;;31.97;19.47;;;-4.60;99.90;;;;;;5072028;28;20489;-75
2022/03/04 06:24:01;;;;;;;34.77;20.23;;;-4.50;99.90;;;;;;5072275;28;20491;-75
2022/03/04 06:26:32;;;;;;;30.00;19.30;;;-4.50;99.90;;;;;;5071033;28;20542;-75
2022/03/04 06:29:00;;;;;;;33.70;20.13;;;-4.40;99.90;;;;;;5072178;28;20499;-74
2022/03/04 06:31:29;;;;;;;31.80;19.43;;;-4.40;99.90;;;;;;5072220;28;20482;-74
2022/03/04 06:33:57;;;;;;;32.83;20.20;;;-4.30;99.90;;;;;;5071889;28;20514;-75
2022/03/04 06:36:25;;;;;;;33.70;19.67;;;-4.20;99.90;;;;;;5072626;28;20559;-74
2022/03/04 06:38:53;;;;;;;32.23;20.30;;;-4.10;99.90;;;;;;5072330;28;20499;-74
2022/03/04 06:41:22;;;;;;;31.10;19.67;;;-4.10;99.90;;;;;;5059523;28;20541;-75
2022/03/04 06:43:50;;;;;;;32.43;19.40;;;-4.00;99.90;;;;;;5051957;28;20457;-76
2022/03/04 06:46:18;;;;;;;29.77;19.07;;;-3.90;99.90;;;;;;5051589;28;20503;-76
2022/03/04 06:48:47;;;;;;;34.67;19.77;;;-3.80;99.90;;;;;;5051878;28;20984;-76
2022/03/04 06:51:15;;;;;;;29.37;18.67;;;-3.70;99.90;;;;;;5070551;28;20454;-74
2022/03/04 06:53:43;;;;;;;28.70;19.10;;;-3.60;99.90;;;;;;5071579;28;20488;-75
2022/03/04 06:56:12;;;;;;;27.97;18.20;;;-3.60;99.90;;;;;;5072800;28;20978;-74
2022/03/04 06:58:41;;;;;;;32.30;19.40;;;-3.50;99.90;;;;;;5074913;28;20459;-74
2022/03/04 07:01:09;;;;;;;30.10;18.33;;;-3.30;99.90;;;;;;5075786;28;20530;-74
2022/03/04 07:03:38;;;;;;;32.13;18.60;;;-3.20;99.90;;;;;;5071343;28;20961;-75
2022/03/04 07:06:06;;;;;;;34.70;18.90;;;-3.10;99.90;;;;;;5072815;28;20538;-75
2022/03/04 07:08:37;;;;;;;32.20;18.03;;;-3.00;99.90;;;;;;5072576;28;20481;-76
2022/03/04 07:11:05;;;;;;;25.53;17.10;;;-2.90;99.90;;;;;;5072823;28;20539;-74
2022/03/04 07:13:34;;;;;;;30.33;18.17;;;-2.80;99.90;;;;;;5072827;28;20458;-75
2022/03/04 07:16:04;;;;;;;30.80;17.90;;;-2.70;99.90;;;;;;5073435;28;20453;-75
2022/03/04 07:18:35;;;;;;;29.97;17.97;;;-2.50;99.90;;;;;;5057043;28;20439;-76
2022/03/04 07:21:06;;;;;;;30.93;19.00;;;-2.50;99.90;;;;;;5063209;28;20489;-75
2022/03/04 07:23:34;;;;;;;31.30;18.13;;;-2.30;99.90;;;;;;5063963;28;20552;-75
2022/03/04 07:26:08;;;;;;;24.73;16.80;;;-2.20;99.90;;;;;;5084023;28;20553;-73
2022/03/04 07:28:36;;;;;;;26.70;16.93;;;-2.10;99.90;;;;;;5085738;28;20418;-74
2022/03/04 07:31:09;;;;;;;26.77;16.53;;;-1.90;99.90;;;;;;5083561;28;20446;-73
2022/03/04 07:33:37;;;;;;;28.43;17.40;;;-1.80;99.90;;;;;;5081779;28;20638;-74
2022/03/04 07:36:05;;;;;;;27.70;17.63;;;-1.70;99.90;;;;;;5080848;28;20540;-74
2022/03/04 07:38:33;;;;;;;26.13;17.67;;;-1.50;99.90;;;;;;5079804;28;20484;-75
2022/03/04 07:41:02;;;;;;;25.83;17.23;;;-1.40;99.90;;;;;;5079054;28;21012;-76
2022/03/04 07:43:31;;;;;;;27.03;16.53;;;-1.30;99.90;;;;;;5075477;28;20485;-74
2022/03/04 07:45:59;;;;;;;24.87;16.53;;;-1.10;99.90;;;;;;5075527;28;20450;-73
2022/03/04 07:48:28;;;;;;;27.13;17.97;;;-1.00;99.90;;;;;;5075216;28;20963;-76
2022/03/04 07:50:57;;;;;;;29.20;17.43;;;-0.80;99.90;;;;;;5075042;28;20445;-75
2022/03/04 07:53:28;;;;;;;26.97;16.67;;;-0.70;99.90;;;;;;5075390;28;20513;-76
2022/03/04 07:56:04;;;;;;;23.00;15.70;;;-0.60;99.90;;;;;;5075046;28;20976;-74
2022/03/04 07:58:32;;;;;;;25.27;16.93;;;-0.50;99.90;;;;;;5075635;28;20480;-75
2022/03/04 08:01:01;;;;;;;25.97;16.13;;;-0.30;99.90;;;;;;5074506;28;20502;-74
2022/03/04 08:03:50;;;;;;;26.53;17.03;;;-0.10;99.90;;;;;;5073365;28;20924;-73
2022/03/04 08:06:18;;;;;;;24.00;16.90;;;0.10;99.90;;;;;;5084458;28;20444;-76
2022/03/04 08:08:46;;;;;;;22.63;15.77;;;0.30;99.90;;;;;;5078114;28;20510;-75
2022/03/04 08:11:15;;;;;;;26.07;16.70;;;0.40;99.90;;;;;;5075008;28;20476;-75
2022/03/04 08:13:43;;;;;;;26.10;16.63;;;0.50;99.70;;;;;;5075177;28;20484;-74
2022/03/04 08:16:11;;;;;;;23.93;16.27;;;0.80;99.90;;;;;;5074871;28;20815;-75
2022/03/04 08:18:40;;;;;;;25.50;17.23;;;1.20;99.60;;;;;;5077354;28;20651;-76
2022/03/04 08:21:11;;;;;;;24.73;16.93;;;1.80;98.70;;;;;;5076903;28;20231;-75
2022/03/04 08:23:40;;;;;;;24.87;17.40;;;3.30;96.30;;;;;;5075378;28;20612;-76
2022/03/04 08:26:08;;;;;;;22.57;16.40;;;5.10;93.00;;;;;;5076766;28;20264;-76
2022/03/04 08:28:36;;;;;;;21.97;15.60;;;7.00;90.40;;;;;;5075300;28;20235;-75
2022/03/04 08:31:10;;;;;;;21.73;16.63;;;8.50;83.60;;;;;;5074475;28;20207;-76
2022/03/04 08:33:40;;;;;;;21.90;16.30;;;9.90;75.60;;;;;;5074182;28;20648;-76
2022/03/04 08:36:13;;;;;;;21.67;16.40;;;10.70;72.00;;;;;;5074550;28;20265;-79
2022/03/04 08:38:41;;;;;;;19.97;16.53;;;11.50;63.90;;;;;;5074638;28;20195;-77
2022/03/04 08:41:11;;;;;;;22.83;16.97;;;11.90;62.70;;;;;;5074270;28;20231;-77
2022/03/04 08:43:40;;;;;;;17.67;15.77;;;12.60;59.70;;;;;;5074356;28;20289;-75
2022/03/04 08:46:12;;;;;;;19.70;15.87;;;13.20;59.10;;;;;;5074198;28;20234;-76
2022/03/04 08:48:40;;;;;;;19.43;15.63;;;13.70;57.80;;;;;;5074259;28;20204;-77
2022/03/04 08:51:08;;;;;;;21.27;16.43;;;13.70;55.90;;;;;;5073419;28;20223;-76
2022/03/04 08:53:38;;;;;;;20.57;16.10;;;13.90;55.50;;;;;;5073960;28;20293;-78
2022/03/04 08:56:08;;;;;;;22.23;15.67;;;14.70;55.30;;;;;;5073791;28;20247;-78
2022/03/04 08:58:36;;;;;;;19.00;16.20;;;14.50;54.30;;;;;;5073625;28;20203;-78
2022/03/04 09:01:05;;;;;;;18.27;16.10;;;15.10;54.10;;;;;;5073294;28;20573;-78
2022/03/04 09:03:36;;;;;;;19.13;17.03;;;16.30;50.00;;;;;;5074046;28;20207;-76
2022/03/04 09:06:05;;;;;;;19.03;16.90;;;15.60;48.00;;;;;;5073933;28;20229;-77
2022/03/04 09:08:38;;;;;;;20.80;18.30;;;15.10;47.00;;;;;;5075022;28;20726;-78
2022/03/04 09:11:07;;;;;;;18.97;16.73;;;13.60;47.80;;;;;;5074410;28;20199;-76
2022/03/04 09:13:37;;;;;;;20.57;17.67;;;13.60;49.90;;;;;;5073777;28;20184;-75
2022/03/04 09:16:06;;;;;;;19.73;17.43;;;13.50;49.70;;;;;;5072782;28;20666;-75
2022/03/04 09:18:34;;;;;;;22.27;17.50;;;12.60;49.40;;;;;;5073461;28;20246;-75
2022/03/04 09:21:03;;;;;;;20.10;17.33;;;12.00;50.80;;;;;;5073025;28;20319;-77
2022/03/04 09:23:31;;;;;;;19.43;17.13;;;12.30;51.10;;;;;;5073202;28;20235;-75
2022/03/04 09:26:02;;;;;;;18.67;16.40;;;12.10;51.80;;;;;;5073837;28;20280;-76
2022/03/04 09:28:33;;;;;;;20.07;17.17;;;12.30;52.00;;;;;;5073825;28;20243;-77
2022/03/04 09:31:08;;;;;;;22.27;17.77;;;12.90;50.80;;;;;;5073512;28;20187;-76
2022/03/04 09:33:39;;;;;;;19.53;17.43;;;13.70;50.80;;;;;;5073177;28;20207;-75
2022/03/04 09:36:11;;;;;;;20.60;17.10;;;13.50;50.40;;;;;;5072929;28;20806;-75
2022/03/04 09:38:40;;;;;;;20.93;17.63;;;12.80;50.00;;;;;;5073061;28;20208;-76
2022/03/04 09:41:10;;;;;;;20.43;17.03;;;12.80;52.00;;;;;;5073056;28;20359;-76
2022/03/04 09:43:39;;;;;;;20.37;17.80;;;13.00;50.90;;;;;;5073183;28;20238;-76
2022/03/04 09:46:07;;;;;;;17.90;16.03;;;12.80;51.00;;;;;;5072694;28;20241;-76
2022/03/04 09:48:40;;;;;;;20.40;17.43;;;12.90;50.60;;;;;;5073075;28;20204;-76
2022/03/04 09:51:09;;;;;;;19.73;17.60;;;13.70;50.80;;;;;;5072712;28;20203;-76
2022/03/04 09:53:37;;;;;;;20.60;17.97;;;14.00;49.40;;;;;;5072973;28;20211;-75
2022/03/04 09:56:05;;;;;;;19.57;17.17;;;13.00;49.50;;;;;;5073236;28;20207;-77
2022/03/04 09:58:37;;;;;;;20.23;17.80;;;13.10;50.70;;;;;;5072778;28;20333;-75
2022/03/04 10:01:10;;;;;;;22.77;18.73;;;13.30;49.80;;;;;;5072201;28;20268;-76
2022/03/04 10:03:48;;;;;;;21.90;18.10;;;13.20;50.30;;;;;;5072957;28;20257;-76
2022/03/04 10:06:18;;;;;;;23.97;18.57;;;12.30;49.70;;;;;;5073100;28;20268;-75
2022/03/04 10:08:49;;;;;;;20.90;17.80;;;11.60;51.00;;;;;;5072816;28;20230;-77
2022/03/04 10:11:25;;;;;;;21.73;18.33;;;12.20;50.70;;;;;;5072907;28;20269;-76
2022/03/04 10:13:57;;;;;;;21.53;17.90;;;11.90;51.40;;;;;;5072837;28;20294;-77
2022/03/04 10:16:27;;;;;;;20.43;18.13;;;12.60;50.90;;;;;;5072506;28;20211;-77
2022/03/04 10:19:06;;;;;;;20.90;17.77;;;13.00;49.70;;;;;;5072538;28;20680;-78
2022/03/04 10:21:51;;;;;;;21.53;17.87;;;12.90;49.10;;;;;;5057011;28;20255;-78
2022/03/04 10:24:23;;;;;;;21.53;18.07;;;12.40;49.50;;;;;;5052577;28;20605;-76
2022/03/04 10:27:00;;;;;;;21.43;18.57;;;12.40;48.90;;;;;;5069309;28;20290;-76
2022/03/04 10:29:31;;;;;;;21.80;17.63;;;12.80;48.80;;;;;;5072231;28;20672;-76
2022/03/04 10:32:14;;;;;;;21.40;18.23;;;11.90;48.80;;;;;;5072893;28;20187;-77
2022/03/04 10:34:52;;;;;;;21.97;17.97;;;11.70;49.70;;;;;;5072386;28;20198;-76
2022/03/04 10:37:23;;;;;;;19.93;17.83;;;12.20;50.00;;;;;;5071921;28;20213;-75
2022/03/04 10:40:04;;;;;;;22.53;19.37;;;13.10;49.30;;;;;;5072254;28;20219;-75
2022/03/04 10:42:47;;;;;;;21.43;19.13;;;12.80;47.80;;;;;;5072280;28;20654;-76
2022/03/04 10:45:19;;;;;;;22.63;18.47;;;12.50;47.80;;;;;;5071999;28;20215;-76
2022/03/04 10:47:50;;;;;;;20.93;18.63;;;12.70;49.20;;;;;;5072092;28;20278;-77
2022/03/04 10:50:20;;;;;;;21.20;18.13;;;13.00;49.00;;;;;;5071584;28;20227;-76
2022/03/04 10:52:50;;;;;;;20.13;17.90;;;13.30;47.30;;;;;;5072367;28;20229;-78
2022/03/04 10:55:26;;;;;;;20.20;17.43;;;13.20;48.30;;;;;;5072322;28;20242;-77
2022/03/04 10:57:55;;;;;;;20.90;17.43;;;13.60;46.80;;;;;;5071624;28;20231;-75
2022/03/04 11:00:30;;;;;;;22.63;18.93;;;13.60;47.60;;;;;;5071889;28;20300;-77
2022/03/04 11:03:03;;;;;;;20.47;17.30;;;13.30;46.70;;;;;;5071727;28;20215;-77
2022/03/04 11:05:32;;;;;;;20.77;18.00;;;13.70;45.90;;;;;;5072134;28;20204;-77
2022/03/04 11:08:01;;;;;;;22.20;17.90;;;13.70;46.20;;;;;;5071655;28;20573;-76
2022/03/04 11:10:29;;;;;;;20.17;17.87;;;14.10;46.20;;;;;;5071586;28;20211;-76
2022/03/04 11:12:57;;;;;;;23.77;18.50;;;12.90;46.10;;;;;;5072192;28;20291;-75
2022/03/04 11:15:26;;;;;;;21.23;18.40;;;12.80;46.50;;;;;;5075897;28;20213;-77
2022/03/04 11:17:55;;;;;;;20.73;18.10;;;12.60;47.00;;;;;;5075810;28;20290;-75
2022/03/04 11:20:24;;;;;;;20.47;18.20;;;13.00;47.10;;;;;;5075855;28;20272;-78
2022/03/04 11:22:52;;;;;;;21.93;18.90;;;12.10;47.30;;;;;;5075785;28;20311;-76
2022/03/04 11:25:22;;;;;;;20.17;17.60;;;12.00;48.80;;;;;;5075223;28;20234;-75
2022/03/04 11:27:52;;;;;;;21.17;17.57;;;13.10;49.80;;;;;;5075414;28;20295;-75
2022/03/04 11:30:41;;;;;;;22.60;17.33;;;13.70;47.10;;;;;;5075400;28;20768;-78
2022/03/04 11:33:17;;;;;;;18.53;16.13;;;13.00;46.00;;;;;;5075288;28;20203;-76
2022/03/04 11:36:16;;;;;;;20.20;17.30;;;12.10;46.80;;;;;;5075798;28;20218;-76
2022/03/04 11:38:58;;;;;;;19.63;16.47;;;12.50;48.40;;;;;;5032849;28;20401;-76
2022/03/04 11:41:35;;;;;;;18.00;15.37;;;12.70;47.20;;;;;;5070070;28;20269;-75
2022/03/04 11:44:12;;;;;;;18.87;15.90;;;12.20;47.00;;;;;;5075746;28;20230;-76
2022/03/04 11:46:46;;;;;;;20.53;17.13;;;12.00;48.20;;;;;;5076833;28;20668;-74
2022/03/04 11:49:26;;;;;;;19.43;16.80;;;11.90;48.30;;;;;;5076063;28;20235;-75
2022/03/04 11:52:21;;;;;;;18.43;16.03;;;11.40;49.20;;;;;;5082894;28;20233;-75
2022/03/04 11:55:16;;;;;;;19.33;17.00;;;11.80;49.80;;;;;;5076310;28;20295;-75
2022/03/04 11:57:45;;;;;;;20.23;17.50;;;11.60;49.70;;;;;;5074862;28;20203;-76
2022/03/04 12:00:27;;;;;;;20.47;17.03;;;10.20;50.50;;;;;;5075049;28;20224;-77
2022/03/04 12:03:00;;;;;;;25.90;17.20;;;10.50;51.00;;;;;;5074913;28;20258;-76
2022/03/04 12:05:32;;;;;;;18.83;15.90;;;10.70;51.10;;;;;;5074892;28;20232;-76
2022/03/04 12:08:10;;;;;;;19.87;15.53;;;10.10;51.30;;;;;;5074412;28;20199;-75
2022/03/04 12:10:44;;;;;;;23.30;16.30;;;9.70;53.30;;;;;;5075588;28;20340;-77
2022/03/04 12:13:19;;;;;;;17.37;14.30;;;9.30;54.00;;;;;;5074776;28;20290;-76
2022/03/04 12:15:52;;;;;;;39.80;17.00;;;9.90;53.90;;;;;;5074745;28;20223;-77
2022/03/04 12:18:30;;;;;;;17.77;13.83;;;9.10;53.80;;;;;;5074680;28;20215;-77
2022/03/04 12:21:23;;;;;;;17.13;13.03;;;9.40;54.40;;;;;;5074799;28;20203;-76
2022/03/04 12:24:01;;;;;;;16.07;12.83;;;9.70;54.00;;;;;;5074535;28;20886;-76
2022/03/04 12:26:40;;;;;;;19.50;13.50;;;9.80;53.60;;;;;;5074058;28;20558;-76
2022/03/04 12:29:11;;;;;;;14.20;11.83;;;9.70;54.20;;;;;;5075224;28;20602;-75
2022/03/04 12:31:44;;;;;;;16.33;11.57;;;9.90;54.40;;;;;;5074299;28;20707;-75
2022/03/04 12:34:22;;;;;;;17.73;12.27;;;9.80;53.50;;;;;;5074163;28;20260;-75
2022/03/04 12:36:53;;;;;;;24.83;13.07;;;10.00;52.60;;;;;;5074367;28;20261;-75
2022/03/04 12:39:23;;;;;;;13.70;11.30;;;9.70;53.60;;;;;;5074326;28;20208;-76
2022/03/04 12:41:55;;;;;;;18.87;11.40;;;9.20;54.90;;;;;;5074147;28;20227;-76
2022/03/04 12:44:27;;;;;;;27.40;11.07;;;8.70;54.80;;;;;;5074497;28;20673;-75